Time;durP1;ratioP1;P1;durP2;ratioP2;P2;SDS_P1;SDS_P2;PMS_P1;PMS_P2;Temp;Humidity;BMP_temperature;BMP_pressure;BME280_temperature;BME280_humidity;BME280_pressure;Samples;Min_cycle;Max_cycle;Signal;HPM_P1;HPM_P2
2023/11/12 00:00:22;;;;;;;13.60;3.15;;;;;;;;;;5012770;28;20433;-62
2023/11/12 00:02:48;;;;;;;5.57;2.60;;;;;;;;;;5016672;28;20085;-62
2023/11/12 00:05:17;;;;;;;8.95;2.97;;;;;;;;;;5013438;28;20125;-61
2023/11/12 00:07:44;;;;;;;8.60;2.67;;;;;;;;;;5019790;28;20057;-61
2023/11/12 00:10:12;;;;;;;5.78;2.75;;;;;;;;;;5015349;28;20057;-61
2023/11/12 00:12:40;;;;;;;7.10;3.10;;;;;;;;;;5026432;28;20096;-61
2023/11/12 00:15:08;;;;;;;12.65;3.08;;;;;;;;;;5009603;28;20054;-61
2023/11/12 00:17:36;;;;;;;5.53;2.53;;;;;;;;;;5003953;28;20057;-61
2023/11/12 00:20:05;;;;;;;6.53;2.60;;;;;;;;;;5006518;28;20315;-61
2023/11/12 00:22:34;;;;;;;9.52;2.92;;;;;;;;;;5004727;28;20205;-61
2023/11/12 00:25:01;;;;;;;6.10;2.90;;;;;;;;;;4999071;28;20070;-61
2023/11/12 00:27:28;;;;;;;7.68;2.90;;;;;;;;;;5003012;28;20068;-61
2023/11/12 00:29:56;;;;;;;7.72;2.80;;;;;;;;;;4985280;28;20054;-61
2023/11/12 00:32:23;;;;;;;8.98;3.28;;;;;;;;;;4976650;28;20130;-61
2023/11/12 00:34:50;;;;;;;7.63;2.70;;;;;;;;;;4988425;28;20049;-61
2023/11/12 00:37:16;;;;;;;7.15;2.88;;;;;;;;;;4985453;28;20082;-62
2023/11/12 00:39:43;;;;;;;9.95;2.75;;;;;;;;;;4982459;28;20321;-60
2023/11/12 00:42:09;;;;;;;6.22;2.58;;;;;;;;;;4978963;28;20074;-61
2023/11/12 00:44:37;;;;;;;9.75;2.95;;;;;;;;;;4986923;28;20111;-60
2023/11/12 00:47:06;;;;;;;6.87;3.00;;;;;;;;;;5004891;28;20057;-60
2023/11/12 00:49:33;;;;;;;6.40;3.03;;;;;;;;;;5003777;28;20304;-60
2023/11/12 00:52:00;;;;;;;9.40;3.50;;;;;;;;;;5003178;28;20340;-60
2023/11/12 00:54:26;;;;;;;7.28;3.17;;;;;;;;;;4991194;28;20150;-60
2023/11/12 00:56:53;;;;;;;5.93;2.60;;;;;;;;;;4984911;28;20145;-60
2023/11/12 00:59:20;;;;;;;9.07;2.88;;;;;;;;;;4982578;28;20061;-60
2023/11/12 01:01:46;;;;;;;6.95;3.00;;;;;;;;;;4982698;28;20050;-60
2023/11/12 01:04:15;;;;;;;11.10;2.80;;;;;;;;;;4981839;28;20085;-62
2023/11/12 01:06:41;;;;;;;6.07;2.97;;;;;;;;;;5001264;28;20045;-60
2023/11/12 01:09:09;;;;;;;6.93;3.15;;;;;;;;;;5006651;28;20072;-60
2023/11/12 01:11:37;;;;;;;7.97;3.40;;;;;;;;;;5005142;28;20053;-60
2023/11/12 01:14:04;;;;;;;;;;;;;;;;;;5003276;28;20062;-60
2023/11/12 01:16:31;;;;;;;13.85;6.15;;;;;;;;;;5004130;28;19925;-60
2023/11/12 01:18:58;;;;;;;9.85;4.72;;;;;;;;;;5004585;28;20146;-60
2023/11/12 01:21:27;;;;;;;37.28;15.55;;;;;;;;;;5003367;28;20060;-60
2023/11/12 01:23:54;;;;;;;15.30;6.65;;;;;;;;;;5002051;28;20061;-60
2023/11/12 01:26:21;;;;;;;12.43;5.50;;;;;;;;;;4995793;28;20053;-61
2023/11/12 01:28:47;;;;;;;8.63;4.00;;;;;;;;;;5002495;28;20137;-60
2023/11/12 01:31:14;;;;;;;8.18;3.42;;;;;;;;;;5002755;28;20125;-60
2023/11/12 01:33:40;;;;;;;7.97;3.22;;;;;;;;;;5003440;28;20193;-60
2023/11/12 01:36:08;;;;;;;9.27;3.55;;;;;;;;;;5000965;28;20135;-60
2023/11/12 01:38:36;;;;;;;6.25;3.03;;;;;;;;;;4999927;28;20107;-60
2023/11/12 01:41:04;;;;;;;7.75;3.05;;;;;;;;;;5002850;28;20057;-60
2023/11/12 01:43:31;;;;;;;6.57;2.85;;;;;;;;;;5003549;28;20157;-60
2023/11/12 01:45:58;;;;;;;6.97;3.53;;;;;;;;;;5001945;28;20058;-60
2023/11/12 01:48:25;;;;;;;10.63;3.58;;;;;;;;;;4995835;28;20049;-60
2023/11/12 01:50:52;;;;;;;9.25;3.20;;;;;;;;;;5002707;28;20046;-60
2023/11/12 01:53:20;;;;;;;5.85;3.25;;;;;;;;;;5017758;28;20132;-60
2023/11/12 01:55:48;;;;;;;6.82;3.50;;;;;;;;;;5032045;28;20053;-60
2023/11/12 01:58:17;;;;;;;7.50;3.35;;;;;;;;;;5000184;28;20097;-60
2023/11/12 02:00:45;;;;;;;8.02;3.75;;;;;;;;;;5032803;28;20112;-60
2023/11/12 02:03:16;;;;;;;9.93;4.07;;;;;;;;;;5002373;28;20142;-60
2023/11/12 02:05:43;;;;;;;9.52;3.80;;;;;;;;;;4998108;28;20054;-60
2023/11/12 02:08:09;;;;;;;6.30;3.38;;;;;;;;;;5004498;28;20057;-61
2023/11/12 02:10:36;;;;;;;8.05;3.55;;;;;;;;;;4998268;28;20068;-60
2023/11/12 02:13:05;;;;;;;6.03;3.67;;;;;;;;;;5002343;28;20086;-60
2023/11/12 02:15:32;;;;;;;7.75;3.45;;;;;;;;;;4994138;28;20065;-60
2023/11/12 02:17:59;;;;;;;8.30;3.70;;;;;;;;;;4981914;28;20086;-61
2023/11/12 02:20:26;;;;;;;9.00;3.88;;;;;;;;;;4984009;28;20113;-60
2023/11/12 02:22:53;;;;;;;7.82;4.00;;;;;;;;;;5001149;28;20069;-60
2023/11/12 02:25:21;;;;;;;9.45;4.15;;;;;;;;;;5008379;28;20140;-60
2023/11/12 02:27:48;;;;;;;13.25;3.53;;;;;;;;;;5011793;28;20153;-60
2023/11/12 02:35:19;;;;;;;7.68;3.67;;;;;;;;;;4943252;28;20047;-61
2023/11/12 02:37:45;;;;;;;7.63;3.88;;;;;;;;;;4942363;28;20082;-60
2023/11/12 02:40:14;;;;;;;8.18;3.80;;;;;;;;;;4932400;28;20145;-61
2023/11/12 02:42:43;;;;;;;11.35;4.53;;;;;;;;;;4933985;28;20058;-61
2023/11/12 02:45:10;;;;;;;9.27;4.05;;;;;;;;;;4937040;28;20069;-61
2023/11/12 02:47:37;;;;;;;9.75;4.40;;;;;;;;;;4959255;28;20074;-60
2023/11/12 02:50:19;;;;;;;10.88;4.45;;;;;;;;;;4927860;29;20225;-62
2023/11/12 02:52:47;;;;;;;8.82;3.88;;;;;;;;;;4957789;28;20047;-60
2023/11/12 02:55:16;;;;;;;9.63;4.03;;;;;;;;;;4938122;28;20071;-60
2023/11/12 02:57:44;;;;;;;8.27;4.05;;;;;;;;;;4957760;28;20172;-60
2023/11/12 03:00:14;;;;;;;8.23;4.03;;;;;;;;;;4928591;29;20063;-61
2023/11/12 03:02:40;;;;;;;10.05;4.38;;;;;;;;;;4919555;29;20060;-60
2023/11/12 03:05:09;;;;;;;7.18;3.83;;;;;;;;;;4929013;28;20061;-60
2023/11/12 03:07:35;;;;;;;9.63;4.30;;;;;;;;;;4928337;29;20051;-61
2023/11/12 03:10:04;;;;;;;9.40;4.07;;;;;;;;;;4907285;29;20083;-60
2023/11/12 03:12:31;;;;;;;7.55;3.85;;;;;;;;;;4928081;28;20062;-61
2023/11/12 03:14:59;;;;;;;7.57;3.75;;;;;;;;;;4958882;28;20066;-60
2023/11/12 03:17:26;;;;;;;10.23;4.00;;;;;;;;;;4946111;28;20050;-60
2023/11/12 03:19:52;;;;;;;13.48;4.40;;;;;;;;;;4946090;28;20149;-60
2023/11/12 03:22:21;;;;;;;7.82;4.30;;;;;;;;;;4967222;28;20133;-60
2023/11/12 03:24:48;;;;;;;15.23;4.38;;;;;;;;;;4926602;28;20054;-60
2023/11/12 03:27:14;;;;;;;9.82;4.32;;;;;;;;;;4931709;29;20043;-60
2023/11/12 03:29:41;;;;;;;9.85;4.20;;;;;;;;;;4958612;28;20216;-60
2023/11/12 03:32:10;;;;;;;10.50;4.70;;;;;;;;;;4927732;29;20065;-61
2023/11/12 03:34:37;;;;;;;11.88;4.47;;;;;;;;;;4927608;28;20047;-61
2023/11/12 03:37:04;;;;;;;8.13;3.95;;;;;;;;;;4947070;28;20069;-61
2023/11/12 03:39:30;;;;;;;11.38;4.78;;;;;;;;;;4946042;28;20074;-61
2023/11/12 03:41:57;;;;;;;9.15;3.95;;;;;;;;;;4963684;28;20083;-61
2023/11/12 03:44:23;;;;;;;9.27;3.95;;;;;;;;;;4930826;28;20063;-61
2023/11/12 03:46:50;;;;;;;7.70;4.35;;;;;;;;;;4959004;28;20066;-61
2023/11/12 03:49:19;;;;;;;8.77;4.57;;;;;;;;;;4964356;28;20134;-60
2023/11/12 03:51:47;;;;;;;12.82;4.30;;;;;;;;;;4967560;28;20145;-60
2023/11/12 03:54:13;;;;;;;11.00;4.65;;;;;;;;;;4945034;28;20054;-61
2023/11/12 03:56:40;;;;;;;12.10;4.40;;;;;;;;;;4942128;28;20423;-60
2023/11/12 03:59:07;;;;;;;8.88;4.40;;;;;;;;;;4947902;28;20058;-60
2023/11/12 04:01:33;;;;;;;11.00;4.55;;;;;;;;;;4949085;28;20154;-60
2023/11/12 04:04:00;;;;;;;12.43;5.10;;;;;;;;;;4944504;28;20086;-60
2023/11/12 04:06:28;;;;;;;10.15;4.90;;;;;;;;;;4934864;28;20494;-61
2023/11/12 04:08:54;;;;;;;10.32;4.85;;;;;;;;;;4930049;29;20066;-60
2023/11/12 04:11:21;;;;;;;10.05;4.70;;;;;;;;;;4930508;29;20070;-60
2023/11/12 04:13:47;;;;;;;17.55;5.55;;;;;;;;;;4924185;28;20090;-61
2023/11/12 04:16:14;;;;;;;9.13;4.90;;;;;;;;;;4943929;28;20119;-60
2023/11/12 04:18:43;;;;;;;11.38;5.10;;;;;;;;;;4942104;28;20058;-60
2023/11/12 04:21:10;;;;;;;9.02;4.35;;;;;;;;;;4934446;29;20051;-60
2023/11/12 04:23:38;;;;;;;8.43;4.55;;;;;;;;;;4945705;28;20079;-60
2023/11/12 04:26:05;;;;;;;11.00;5.00;;;;;;;;;;4926147;29;20051;-60
2023/11/12 04:28:32;;;;;;;12.85;5.20;;;;;;;;;;4938128;28;20047;-60
2023/11/12 04:30:58;;;;;;;9.77;4.75;;;;;;;;;;4945667;28;20073;-60
2023/11/12 04:33:25;;;;;;;9.25;4.57;;;;;;;;;;4946087;28;20118;-60
2023/11/12 04:35:52;;;;;;;15.30;5.03;;;;;;;;;;4938237;28;20177;-60
2023/11/12 04:38:19;;;;;;;10.45;4.60;;;;;;;;;;4911801;29;20052;-60
2023/11/12 04:40:48;;;;;;;10.05;4.95;;;;;;;;;;4905540;29;20087;-60
2023/11/12 04:43:15;;;;;;;9.32;4.68;;;;;;;;;;4916190;29;20051;-62
2023/11/12 04:45:42;;;;;;;11.50;5.10;;;;;;;;;;4909881;28;20138;-62
2023/11/12 04:48:09;;;;;;;12.82;4.55;;;;;;;;;;4927519;29;20146;-60
2023/11/12 04:50:37;;;;;;;8.18;4.68;;;;;;;;;;4902975;29;20118;-60
2023/11/12 04:53:04;;;;;;;;;;;;;;;;;;4913195;29;20051;-60
2023/11/12 04:55:31;;;;;;;8.48;3.72;;;;;;;;;;4922540;29;19961;-61
2023/11/12 04:58:01;;;;;;;11.88;4.78;;;;;;;;;;4925924;29;20151;-61
2023/11/12 05:00:28;;;;;;;12.93;5.10;;;;;;;;;;4925355;29;20047;-61
2023/11/12 05:02:55;;;;;;;11.95;4.95;;;;;;;;;;4940441;28;20059;-61
2023/11/12 05:05:21;;;;;;;11.95;5.00;;;;;;;;;;4946103;28;20058;-61
2023/11/12 05:07:48;;;;;;;9.38;4.68;;;;;;;;;;4931248;28;20059;-61
2023/11/12 05:10:15;;;;;;;10.23;4.68;;;;;;;;;;4946408;29;20047;-61
2023/11/12 05:12:45;;;;;;;10.80;5.30;;;;;;;;;;4939499;29;20069;-61
2023/11/12 05:15:13;;;;;;;11.27;5.32;;;;;;;;;;4937842;28;20106;-61
2023/11/12 05:17:40;;;;;;;10.27;5.28;;;;;;;;;;4944874;28;20062;-61
2023/11/12 05:20:08;;;;;;;11.25;5.32;;;;;;;;;;4946774;28;20078;-61
2023/11/12 05:22:34;;;;;;;9.57;4.77;;;;;;;;;;4942233;28;20047;-61
2023/11/12 05:25:01;;;;;;;10.43;5.25;;;;;;;;;;4940539;28;20306;-60
2023/11/12 05:27:28;;;;;;;13.32;6.28;;;;;;;;;;4944331;28;20059;-61
2023/11/12 05:29:54;;;;;;;14.45;7.03;;;;;;;;;;4946227;28;20187;-61
2023/11/12 05:32:23;;;;;;;15.15;6.82;;;;;;;;;;4943239;29;20154;-61
2023/11/12 05:34:50;;;;;;;22.00;6.90;;;;;;;;;;4929589;28;20081;-61
2023/11/12 05:37:17;;;;;;;13.65;6.82;;;;;;;;;;4951437;28;20098;-61
2023/11/12 05:39:44;;;;;;;15.25;6.13;;;;;;;;;;4960871;28;20091;-61
2023/11/12 05:42:10;;;;;;;17.25;7.65;;;;;;;;;;4944307;28;20062;-60
2023/11/12 05:44:37;;;;;;;16.40;8.13;;;;;;;;;;4915243;28;20154;-61
2023/11/12 05:47:04;;;;;;;15.13;6.40;;;;;;;;;;4930064;29;20047;-61
2023/11/12 05:49:32;;;;;;;17.88;6.90;;;;;;;;;;4923822;29;20056;-61
2023/11/12 05:51:59;;;;;;;17.55;7.70;;;;;;;;;;4926678;29;20063;-60
2023/11/12 05:54:26;;;;;;;14.38;7.05;;;;;;;;;;4914549;29;20047;-61
2023/11/12 05:56:52;;;;;;;16.95;7.57;;;;;;;;;;4925595;29;20051;-61
2023/11/12 05:59:19;;;;;;;15.85;6.63;;;;;;;;;;4924635;29;20481;-60
2023/11/12 06:01:45;;;;;;;15.15;7.28;;;;;;;;;;4925773;29;20059;-61
2023/11/12 06:04:12;;;;;;;18.15;7.55;;;;;;;;;;4920462;29;20079;-61
2023/11/12 06:06:41;;;;;;;15.15;7.22;;;;;;;;;;4918714;28;20143;-60
2023/11/12 06:09:08;;;;;;;15.15;7.18;;;;;;;;;;4915651;29;20056;-60
2023/11/12 06:11:37;;;;;;;16.83;7.93;;;;;;;;;;4920648;29;20060;-60
2023/11/12 06:14:03;;;;;;;12.52;7.00;;;;;;;;;;4909833;29;20066;-62
2023/11/12 06:16:30;;;;;;;17.40;7.82;;;;;;;;;;4903187;28;20051;-60
2023/11/12 06:18:58;;;;;;;18.02;7.40;;;;;;;;;;4926099;28;20051;-60
2023/11/12 06:21:24;;;;;;;18.13;7.57;;;;;;;;;;4924562;29;20079;-61
2023/11/12 06:23:53;;;;;;;19.98;8.27;;;;;;;;;;4913895;28;20087;-60
2023/11/12 06:26:20;;;;;;;18.13;8.02;;;;;;;;;;4955061;28;20050;-60
2023/11/12 06:28:47;;;;;;;16.17;7.75;;;;;;;;;;4958759;28;20074;-59
2023/11/12 06:31:14;;;;;;;16.58;7.72;;;;;;;;;;4963652;28;20077;-62
2023/11/12 06:33:41;;;;;;;18.48;7.95;;;;;;;;;;4943675;28;20059;-60
2023/11/12 06:36:09;;;;;;;23.27;8.45;;;;;;;;;;4941322;28;20598;-60
2023/11/12 06:38:36;;;;;;;22.92;8.25;;;;;;;;;;4936441;28;20055;-60
2023/11/12 06:41:04;;;;;;;15.25;7.18;;;;;;;;;;4944505;28;20142;-60
2023/11/12 06:43:31;;;;;;;16.13;7.50;;;;;;;;;;4936644;28;20087;-62
2023/11/12 06:45:57;;;;;;;19.58;8.05;;;;;;;;;;4936323;28;20055;-62
2023/11/12 06:48:24;;;;;;;17.88;8.23;;;;;;;;;;4938372;28;20055;-62
2023/11/12 06:50:51;;;;;;;13.60;6.82;;;;;;;;;;4944630;28;20055;-62
2023/11/12 06:53:17;;;;;;;16.63;8.00;;;;;;;;;;4945306;28;20170;-62
2023/11/12 06:55:44;;;;;;;16.33;7.45;;;;;;;;;;4929707;28;20171;-62
2023/11/12 06:58:12;;;;;;;15.13;7.10;;;;;;;;;;4942597;29;20125;-62
2023/11/12 07:00:39;;;;;;;14.75;6.97;;;;;;;;;;4934638;28;20440;-62
2023/11/12 07:03:06;;;;;;;17.52;7.30;;;;;;;;;;4943409;28;20089;-62
2023/11/12 07:05:33;;;;;;;16.13;7.65;;;;;;;;;;4948948;28;20128;-62
2023/11/12 07:08:00;;;;;;;19.27;7.88;;;;;;;;;;4926591;29;20055;-62
2023/11/12 07:10:28;;;;;;;16.17;7.60;;;;;;;;;;4919100;29;20060;-61
2023/11/12 07:12:56;;;;;;;16.48;8.02;;;;;;;;;;4928609;29;20139;-60
2023/11/12 07:15:24;;;;;;;19.08;8.05;;;;;;;;;;4917177;29;20177;-60
2023/11/12 07:17:50;;;;;;;14.57;7.78;;;;;;;;;;4922988;29;20060;-60
2023/11/12 07:20:18;;;;;;;18.17;8.50;;;;;;;;;;4927786;29;20134;-61
2023/11/12 07:22:46;;;;;;;20.23;8.32;;;;;;;;;;4919794;29;20552;-60
2023/11/12 07:25:13;;;;;;;23.15;8.82;;;;;;;;;;4910016;29;20095;-60
2023/11/12 07:27:43;;;;;;;17.42;8.18;;;;;;;;;;4908290;29;20084;-61
2023/11/12 07:30:10;;;;;;;16.70;8.50;;;;;;;;;;4907480;29;20052;-62
2023/11/12 07:32:38;;;;;;;18.58;8.10;;;;;;;;;;4903537;29;20056;-60
2023/11/12 07:35:08;;;;;;;22.00;9.38;;;;;;;;;;4918208;29;20091;-60
2023/11/12 07:37:35;;;;;;;18.13;8.65;;;;;;;;;;4927140;29;20071;-60
2023/11/12 07:40:01;;;;;;;18.00;8.45;;;;;;;;;;4932697;29;20162;-61
2023/11/12 07:42:28;;;;;;;17.33;8.15;;;;;;;;;;4926935;29;20095;-61
2023/11/12 07:44:54;;;;;;;22.02;9.13;;;;;;;;;;4915102;28;20051;-61
2023/11/12 07:47:21;;;;;;;23.42;9.20;;;;;;;;;;4929014;29;20055;-60
2023/11/12 07:49:49;;;;;;;21.98;9.55;;;;;;;;;;4947656;28;20052;-61
2023/11/12 07:52:16;;;;;;;18.70;8.63;;;;;;;;;;4942560;28;20105;-60
2023/11/12 07:54:43;;;;;;;17.83;8.55;;;;;;;;;;4924971;28;20055;-60
2023/11/12 07:57:10;;;;;;;17.38;8.18;;;;;;;;;;4926025;29;20055;-60
2023/11/12 07:59:36;;;;;;;23.52;8.30;;;;;;;;;;4925931;29;20058;-61
2023/11/12 08:02:03;;;;;;;18.67;7.82;;;;;;;;;;4940628;28;20051;-60
2023/11/12 08:04:30;;;;;;;21.90;8.32;;;;;;;;;;4906615;29;20062;-61
2023/11/12 08:06:58;;;;;;;18.23;8.25;;;;;;;;;;4946216;28;20086;-61
2023/11/12 08:09:24;;;;;;;20.35;8.02;;;;;;;;;;4961168;28;20101;-61
2023/11/12 08:11:51;;;;;;;20.10;8.18;;;;;;;;;;4946665;28;20086;-60
2023/11/12 08:14:19;;;;;;;24.10;9.23;;;;;;;;;;4920827;28;20245;-60
2023/11/12 08:16:46;;;;;;;16.23;7.88;;;;;;;;;;4941169;28;20054;-60
2023/11/12 08:19:12;;;;;;;17.08;7.88;;;;;;;;;;4942419;28;20121;-59
2023/11/12 08:21:39;;;;;;;17.77;8.23;;;;;;;;;;4947300;28;20065;-60
2023/11/12 08:24:08;;;;;;;22.27;9.23;;;;;;;;;;4920644;28;20062;-60
2023/11/12 08:26:38;;;;;;;;;;;;;;;;;;4934298;28;20059;-60
2023/11/12 08:29:06;;;;;;;15.65;6.72;;;;;;;;;;4956587;28;19930;-60
2023/11/12 08:31:34;;;;;;;14.90;7.28;;;;;;;;;;4964695;28;20049;-60
2023/11/12 08:34:02;;;;;;;15.85;7.47;;;;;;;;;;4952224;28;20044;-60
2023/11/12 08:36:30;;;;;;;;;;;;;;;;;;4938582;28;20043;-60
2023/11/12 08:38:57;;;;;;;16.50;6.55;;;;;;;;;;4957374;28;19922;-62
2023/11/12 08:41:25;;;;;;;19.02;8.15;;;;;;;;;;4944593;29;20059;-61
2023/11/12 08:43:54;;;;;;;15.35;6.57;;;;;;;;;;4924406;28;20058;-60
2023/11/12 08:46:23;;;;;;;15.30;7.15;;;;;;;;;;4921905;28;20055;-61
2023/11/12 08:48:49;;;;;;;15.48;6.75;;;;;;;;;;4941676;28;20067;-61
2023/11/12 08:51:17;;;;;;;14.23;6.25;;;;;;;;;;4939897;29;20051;-60
2023/11/12 08:53:44;;;;;;;16.00;6.75;;;;;;;;;;4939997;29;20059;-61
2023/11/12 08:56:12;;;;;;;16.63;6.90;;;;;;;;;;4942759;28;20079;-61
2023/11/12 08:58:40;;;;;;;14.55;6.65;;;;;;;;;;4922407;28;20075;-61
2023/11/12 09:01:08;;;;;;;15.27;6.60;;;;;;;;;;4925258;29;20143;-61
2023/11/12 09:03:35;;;;;;;14.38;7.10;;;;;;;;;;4926369;29;20190;-61
2023/11/12 09:06:02;;;;;;;14.60;6.72;;;;;;;;;;4956528;28;20051;-61
2023/11/12 09:08:29;;;;;;;15.25;7.00;;;;;;;;;;4935080;28;20067;-61
2023/11/12 09:10:56;;;;;;;15.27;7.30;;;;;;;;;;4941414;28;20106;-62
2023/11/12 09:13:22;;;;;;;20.80;6.85;;;;;;;;;;4941081;29;20082;-61
2023/11/12 09:15:50;;;;;;;14.52;6.45;;;;;;;;;;4948237;28;20110;-61
2023/11/12 09:18:20;;;;;;;16.60;7.13;;;;;;;;;;4924608;29;20119;-61
2023/11/12 09:20:47;;;;;;;15.60;6.78;;;;;;;;;;4938872;29;20069;-61
2023/11/12 09:23:14;;;;;;;13.52;6.50;;;;;;;;;;4944424;29;20082;-61
2023/11/12 09:25:41;;;;;;;18.55;7.78;;;;;;;;;;4909291;28;20127;-61
2023/11/12 09:28:08;;;;;;;17.02;7.60;;;;;;;;;;4938605;28;20366;-62
2023/11/12 09:30:34;;;;;;;15.27;7.68;;;;;;;;;;4920298;28;20066;-63
2023/11/12 09:33:04;;;;;;;17.75;8.55;;;;;;;;;;4940152;28;20051;-63
2023/11/12 09:35:31;;;;;;;18.27;8.07;;;;;;;;;;4919428;28;20050;-62
2023/11/12 09:37:58;;;;;;;18.13;8.32;;;;;;;;;;4942336;28;20078;-62
2023/11/12 09:40:29;;;;;;;18.27;9.05;;;;;;;;;;4956920;28;20162;-63
2023/11/12 09:42:56;;;;;;;15.25;7.63;;;;;;;;;;4946051;28;20047;-62
2023/11/12 09:45:25;;;;;;;17.25;7.53;;;;;;;;;;4918423;28;20066;-62
2023/11/12 09:47:58;;;;;;;;;;;;;;;;;;4960787;28;20043;-60
2023/11/12 09:50:28;;;;;;;15.77;6.93;;;;;;;;;;4941314;28;19957;-60
2023/11/12 09:52:58;;;;;;;17.80;7.60;;;;;;;;;;4957073;28;20051;-63
2023/11/12 09:55:25;;;;;;;16.92;7.43;;;;;;;;;;4922066;29;20063;-60
2023/11/12 09:57:52;;;;;;;19.98;7.82;;;;;;;;;;4936181;28;20046;-61
2023/11/12 10:00:19;;;;;;;36.65;17.67;;;;;;;;;;4958561;28;20066;-62
2023/11/12 10:02:46;;;;;;;20.50;9.05;;;;;;;;;;4942586;28;20049;-62
2023/11/12 10:05:14;;;;;;;16.10;8.15;;;;;;;;;;4945017;28;20055;-60
2023/11/12 10:07:43;;;;;;;17.48;7.82;;;;;;;;;;4955280;28;20063;-60
2023/11/12 10:10:22;;;;;;;;;;;;;;;;;;4923311;29;20047;-60
2023/11/12 10:12:49;;;;;;;18.75;7.30;;;;;;;;;;4936384;29;19930;-61
2023/11/12 10:15:22;;;;;;;19.63;8.15;;;;;;;;;;4927231;28;20051;-60
2023/11/12 10:17:49;;;;;;;15.95;7.65;;;;;;;;;;4928023;29;20052;-60
2023/11/12 10:20:20;;;;;;;17.92;7.07;;;;;;;;;;4923757;29;20138;-61
2023/11/12 10:22:49;;;;;;;17.83;9.25;;;;;;;;;;4919409;29;20060;-62
2023/11/12 10:25:35;;;;;;;17.63;7.60;;;;;;;;;;4918763;28;20070;-61
2023/11/12 10:28:02;;;;;;;17.33;8.00;;;;;;;;;;4959428;28;20090;-61
2023/11/12 10:30:29;;;;;;;16.40;6.18;;;;;;;;;;4938400;28;20063;-62
2023/11/12 10:32:58;;;;;;;16.92;6.85;;;;;;;;;;4951510;28;20079;-60
2023/11/12 10:35:30;;;;;;;12.88;6.07;;;;;;;;;;4938225;28;20065;-61
2023/11/12 10:38:01;;;;;;;14.85;5.43;;;;;;;;;;4933377;29;20055;-61
2023/11/12 10:40:28;;;;;;;15.10;5.82;;;;;;;;;;4922190;28;20057;-62
2023/11/12 10:43:06;;;;;;;13.80;5.25;;;;;;;;;;4925925;29;20039;-61
2023/11/12 10:45:35;;;;;;;13.90;5.25;;;;;;;;;;4904476;29;20059;-62
2023/11/12 10:48:04;;;;;;;13.57;5.20;;;;;;;;;;4909466;29;20064;-61
2023/11/12 10:50:32;;;;;;;16.75;6.75;;;;;;;;;;4921864;29;20052;-61
2023/11/12 10:53:01;;;;;;;17.40;8.10;;;;;;;;;;4910162;29;20095;-62
2023/11/12 10:55:27;;;;;;;15.77;6.32;;;;;;;;;;4942440;28;20055;-61
2023/11/12 10:57:56;;;;;;;14.63;6.75;;;;;;;;;;4943363;28;20059;-62
2023/11/12 11:00:24;;;;;;;20.35;8.27;;;;;;;;;;4930159;28;20042;-61
2023/11/12 11:02:51;;;;;;;16.80;7.53;;;;;;;;;;4957859;28;20145;-61
2023/11/12 11:05:18;;;;;;;16.75;7.85;;;;;;;;;;4944524;28;20059;-61
2023/11/12 11:07:48;;;;;;;17.25;8.15;;;;;;;;;;4927656;29;20079;-61
2023/11/12 11:10:17;;;;;;;16.60;8.38;;;;;;;;;;4929065;29;20141;-62
2023/11/12 11:12:44;;;;;;;18.33;8.05;;;;;;;;;;4922964;28;20078;-60
2023/11/12 11:15:40;;;;;;;20.58;8.93;;;;;;;;;;4929073;28;20044;-61
2023/11/12 11:18:09;;;;;;;15.85;7.30;;;;;;;;;;4914738;29;20160;-61
2023/11/12 11:20:50;;;;;;;;;;;;;;;;;;4929184;29;20055;-63
2023/11/12 11:23:39;;;;;;;12.90;5.82;;;;;;;;;;4943683;29;20006;-62
2023/11/12 11:26:33;;;;;;;20.85;9.20;;;;;;;;;;4904084;29;20110;-61
2023/11/12 11:29:17;;;;;;;21.52;8.20;;;;;;;;;;4928696;29;20051;-60
2023/11/12 11:32:17;;;;;;;17.05;7.40;;;;;;;;;;4928288;29;20055;-62
2023/11/12 11:34:48;;;;;;;19.40;6.80;;;;;;;;;;4921039;28;20061;-62
2023/11/12 11:37:15;;;;;;;21.65;7.20;;;;;;;;;;4924933;29;20143;-62
2023/11/12 11:39:42;;;;;;;17.17;6.63;;;;;;;;;;4958673;28;20083;-61
2023/11/12 11:42:17;;;;;;;14.40;4.85;;;;;;;;;;4944186;28;20067;-62
2023/11/12 11:44:45;;;;;;;13.18;5.57;;;;;;;;;;4856184;28;20059;-62
2023/11/12 11:47:14;;;;;;;22.75;6.65;;;;;;;;;;4914601;29;20059;-61
2023/11/12 11:49:46;;;;;;;14.27;5.70;;;;;;;;;;4927813;29;20053;-64
2023/11/12 11:52:18;;;;;;;12.73;6.10;;;;;;;;;;4944867;28;20059;-63
2023/11/12 11:54:46;;;;;;;13.68;5.75;;;;;;;;;;4875807;29;20055;-62
2023/11/12 11:57:18;;;;;;;11.80;5.43;;;;;;;;;;4930808;29;20067;-61
2023/11/12 11:59:48;;;;;;;13.32;6.15;;;;;;;;;;4945752;29;20298;-60
2023/11/12 12:02:16;;;;;;;14.50;5.95;;;;;;;;;;4929639;29;20051;-62
2023/11/12 12:04:51;;;;;;;11.70;6.00;;;;;;;;;;4931945;28;20054;-62
2023/11/12 12:07:23;;;;;;;18.08;6.18;;;;;;;;;;4954635;28;20146;-62
2023/11/12 12:09:50;;;;;;;13.07;5.88;;;;;;;;;;4928160;29;20043;-62
2023/11/12 12:12:19;;;;;;;12.27;5.68;;;;;;;;;;4945714;28;20079;-64
2023/11/12 12:14:47;;;;;;;13.38;5.40;;;;;;;;;;4915591;28;20063;-62
2023/11/12 12:17:14;;;;;;;11.50;5.15;;;;;;;;;;4926146;29;20234;-62
2023/11/12 12:19:42;;;;;;;12.60;5.57;;;;;;;;;;4914541;29;20119;-63
2023/11/12 12:22:09;;;;;;;12.18;5.88;;;;;;;;;;4931855;28;20062;-63
2023/11/12 12:24:37;;;;;;;22.58;8.57;;;;;;;;;;4933710;28;20106;-64
2023/11/12 12:27:12;;;;;;;16.08;6.43;;;;;;;;;;4926815;28;20059;-64
2023/11/12 12:29:46;;;;;;;13.82;5.72;;;;;;;;;;4918406;28;20047;-61
2023/11/12 12:32:18;;;;;;;13.23;5.53;;;;;;;;;;4941796;29;20126;-61
2023/11/12 12:34:56;;;;;;;12.35;4.82;;;;;;;;;;4909851;29;20059;-61
2023/11/12 12:37:27;;;;;;;10.20;4.20;;;;;;;;;;4931154;29;20051;-62
2023/11/12 12:40:03;;;;;;;12.35;5.45;;;;;;;;;;4931598;29;20071;-62
2023/11/12 12:42:30;;;;;;;14.35;5.18;;;;;;;;;;4928011;29;20048;-62
2023/11/12 12:45:03;;;;;;;12.45;5.18;;;;;;;;;;4874963;29;20055;-62
2023/11/12 12:47:35;;;;;;;12.20;4.57;;;;;;;;;;4928527;29;20230;-62
2023/11/12 12:50:16;;;;;;;10.30;4.88;;;;;;;;;;4958607;28;20046;-62
2023/11/12 12:52:45;;;;;;;10.65;4.85;;;;;;;;;;4920814;29;20075;-62
2023/11/12 12:55:15;;;;;;;10.30;4.70;;;;;;;;;;4893665;29;20075;-62
2023/11/12 12:57:42;;;;;;;13.07;5.10;;;;;;;;;;4929914;28;20053;-61
2023/11/12 13:00:13;;;;;;;10.50;5.05;;;;;;;;;;4926790;29;20088;-62
2023/11/12 13:02:46;;;;;;;11.82;4.88;;;;;;;;;;4924036;29;20079;-62
2023/11/12 13:05:25;;;;;;;11.88;4.97;;;;;;;;;;4916753;29;20071;-62
2023/11/12 13:07:53;;;;;;;14.20;6.25;;;;;;;;;;4927122;29;20059;-62
2023/11/12 13:10:25;;;;;;;15.82;5.97;;;;;;;;;;4927773;29;20062;-62
2023/11/12 13:12:56;;;;;;;10.43;4.57;;;;;;;;;;4924597;28;20062;-62
2023/11/12 13:15:27;;;;;;;10.45;4.78;;;;;;;;;;4891380;29;20051;-62
2023/11/12 13:17:54;;;;;;;10.77;4.45;;;;;;;;;;4932300;29;20083;-62
2023/11/12 13:20:25;;;;;;;11.80;4.75;;;;;;;;;;4926350;29;20147;-62
2023/11/12 13:22:56;;;;;;;11.85;4.95;;;;;;;;;;4920142;29;20047;-61
2023/11/12 13:25:23;;;;;;;13.68;4.28;;;;;;;;;;4913161;29;20102;-60
2023/11/12 13:27:49;;;;;;;11.32;4.78;;;;;;;;;;4927679;29;20059;-60
2023/11/12 13:30:20;;;;;;;11.80;5.05;;;;;;;;;;4929251;29;20051;-60
2023/11/12 13:32:49;;;;;;;10.93;4.72;;;;;;;;;;4924271;28;20056;-60
2023/11/12 13:35:16;;;;;;;;;;;;;;;;;;4922177;29;20056;-60
2023/11/12 13:37:45;;;;;;;9.73;4.60;;;;;;;;;;4929806;29;19929;-60
2023/11/12 13:40:14;;;;;;;11.00;4.82;;;;;;;;;;4927426;28;20059;-60
2023/11/12 13:42:43;;;;;;;;;;;;;;;;;;4921562;29;20087;-61
2023/11/12 13:45:13;;;;;;;10.00;4.20;;;;;;;;;;4936635;28;19926;-61
2023/11/12 13:47:43;;;;;;;10.77;4.85;;;;;;;;;;4939573;28;20087;-62
2023/11/12 13:50:16;;;;;;;13.48;5.70;;;;;;;;;;4943737;28;20059;-62
2023/11/12 13:52:43;;;;;;;21.50;7.90;;;;;;;;;;4940667;28;20059;-61
2023/11/12 13:55:17;;;;;;;12.52;5.35;;;;;;;;;;4934355;28;20051;-60
2023/11/12 13:57:45;;;;;;;8.48;4.03;;;;;;;;;;4950109;28;20074;-60
2023/11/12 14:00:15;;;;;;;11.80;4.43;;;;;;;;;;4946980;28;20055;-60
2023/11/12 14:02:42;;;;;;;8.35;3.88;;;;;;;;;;4946324;28;20298;-61
2023/11/12 14:05:11;;;;;;;9.18;4.22;;;;;;;;;;4934912;28;20062;-61
2023/11/12 14:07:41;;;;;;;8.80;4.22;;;;;;;;;;4946920;28;20134;-62
2023/11/12 14:10:14;;;;;;;10.57;5.28;;;;;;;;;;4946099;28;20069;-62
2023/11/12 14:12:44;;;;;;;17.45;6.85;;;;;;;;;;4942325;28;20051;-62
2023/11/12 14:15:15;;;;;;;10.60;4.13;;;;;;;;;;4931750;28;20083;-62
2023/11/12 14:17:43;;;;;;;11.70;4.28;;;;;;;;;;4927306;29;20055;-62
2023/11/12 14:20:25;;;;;;;9.63;4.17;;;;;;;;;;4926764;29;20122;-62
2023/11/12 14:22:54;;;;;;;10.45;4.20;;;;;;;;;;4921679;29;20306;-62
2023/11/12 14:25:51;;;;;;;12.32;5.50;;;;;;;;;;4890367;28;20059;-62
2023/11/12 14:28:23;;;;;;;19.23;5.85;;;;;;;;;;4903713;29;20056;-62
2023/11/12 14:30:53;;;;;;;11.27;5.30;;;;;;;;;;4905275;29;20064;-62
2023/11/12 14:33:44;;;;;;;14.15;6.07;;;;;;;;;;4907760;29;20056;-62
2023/11/12 14:36:37;;;;;;;13.43;4.07;;;;;;;;;;4882298;29;20078;-61
2023/11/12 14:39:43;;;;;;;12.48;4.35;;;;;;;;;;4963549;28;20055;-65
2023/11/12 14:43:00;;;;;;;10.25;4.13;;;;;;;;;;4967338;28;20058;-62
2023/11/12 14:45:48;;;;;;;10.10;4.00;;;;;;;;;;4920957;28;20205;-61
2023/11/12 14:48:16;;;;;;;11.57;4.93;;;;;;;;;;4927774;29;20055;-64
2023/11/12 14:50:43;;;;;;;12.20;5.00;;;;;;;;;;4942108;28;20062;-60